< Typhoon 195711 1957 Season Typhoon 195713 >
Typhoon 195712 (DELLA)
General InformationTrack Information on Google Maps || Disaster Info.ResourceGoogle EarthGE AnimationAtom FeedGeoJSON
Detalied Best Track (Time Zone = UTC)
Year Month Day Hour Lat. Long. Pressure (hPa) Wind (kt) Class Image Chart
1957 9 9 12 20.1 180.4 965 0 7 -- Chart
1957 9 9 18 19.7 179.5 975 0 9 -- Chart
1957 9 10 00 19.4 178.3 975 0 9 -- Chart
1957 9 10 06 19.8 177.3 975 0 9 -- Chart
1957 9 10 12 20.1 176.1 975 0 9 -- Chart
1957 9 10 18 20.5 174.8 975 0 9 -- Chart
1957 9 11 00 20.9 173.5 975 0 9 -- Chart
1957 9 11 06 21.4 172.1 975 0 9 -- Chart
1957 9 11 12 21.9 170.9 970 0 9 -- Chart
1957 9 11 18 22.5 169.6 965 0 9 -- Chart
1957 9 12 00 23.2 168.1 965 0 9 -- Chart
1957 9 12 06 23.9 166.7 965 0 9 -- Chart
1957 9 12 12 24.5 165.1 965 0 9 -- Chart
1957 9 12 18 25.0 163.7 965 0 9 -- Chart
1957 9 13 00 25.6 161.9 965 0 9 -- Chart
1957 9 13 06 26.1 160.1 965 0 9 -- Chart
1957 9 13 12 26.7 158.6 965 0 9 -- Chart
1957 9 13 18 27.1 156.9 965 0 9 -- Chart
1957 9 14 00 27.5 155.5 960 0 9 -- Chart
1957 9 14 06 28.1 154.8 960 0 9 -- Chart
1957 9 14 12 29.2 154.7 960 0 9 -- Chart
1957 9 14 18 30.2 155.1 965 0 9 -- Chart
1957 9 15 00 31.4 156.1 965 0 9 -- Chart
1957 9 15 06 32.8 157.8 965 0 9 -- Chart
1957 9 15 12 33.6 159.8 965 0 9 -- Chart
1957 9 15 18 34.0 162.5 965 0 9 -- Chart
1957 9 16 00 35.5 166.0 965 0 9 -- Chart
1957 9 16 06 37.2 168.8 965 0 9 -- Chart
1957 9 16 12 39.1 172.2 965 0 9 -- Chart
1957 9 16 18 41.0 176.0 970 0 9 -- Chart
1957 9 17 00 43.0 181.5 980 0 9 -- Chart
Japan Meteorological Agency Best Track Data | Correction Date : 1991-07-16
< Typhoon 195711 1957 Season Typhoon 195713 >

Help